메인 페이지
METAR-TAF:

METAR-TAF

공항 :

앤토니오 B. 원 팻 국제공항

하갓냐, 괌, 미국

위도: 13-29N, 경도: 144-48E, 고도: 91m

현재 날씨관측

예보는 43분 전, 14:54시(UTC)에 발표되었습니다.
5kt
온도 28°C
습도 94%
기압 1011 hPa
시정: 16.1km
고도 1700ft 상공 구름 조금
고도 2300ft 상공 구름 보통
고도 3400ft 상공 구름 많음

METAR: PGUM 241454Z 10005KT 10SM FEW017 SCT023 BKN034 28/27 A2986 RMK AO2 RAB42E53 SLP101 P0000 60000 T02780267 58008

시각: 01:37 (15:37 UTC)

예보

예보는 4 시간 17분 전, 11:20시(UTC)에 발표되었습니다.
예보 대상 시간: 24일 12시부터 25일 18시까지 (UTC)
10kt
시정: 10km
고도 2000ft 상공 구름 조금
고도 4000ft 상공 구름 보통
시계 내 소나기

TAF: PGUM 241120Z 2412/2518 09010KT P6SM VCSH FEW020 SCT040

4,000개 이상의 공항 관측 자료 및 예보 (METAR 및 TAF 보고).

지도상에서 검색 가능한 기상관측소가 노란 점과 빨간 점으로 표시되어 있습니다.

기상관측소 명을 보려면 표시 위로 마우스를 이동하세요.

날씨 관측과 예보를 보려면 클릭하세요.

지도 변경 : 확대하려면 엑스 표시가 있는 녹색 버튼, 축소하려면 빼기 표시가 있는 녹색 버튼, 다음 페이지의 지도를 보려면 녹색 화살표를 클릭하세요.


METAR-TAF: